Verdi, Nevada
Current Conditions -  °F | °C
As of 5:55 AM on Monday 26 Jan 2015 (Local Time) from KRNO Reporting Station
Scattered Clouds Scattered Clouds  
Wind Chill: 28°   Ceiling: Unl
Heat Index: 28°   Visibility: 10mi
Dew Point: 23°   Wind: 3mph
Humidity: 81%   Direction: 160°SSE
Pressure: 30.24"   Gusts: NA
Location:  39.52°N, 119.99°W
Report Text: KRNO 261355Z 16003KT 10SM SCT250 M02/M05 A3024 RMK AO2 SLP239 T10221050
Loading
Personal Weather Stations






























Interactive Weather Map New forecast layout! Learn more

10-Day Weather Forecast

Advertisements
Track Severe Weather on mobile